Pacific Palisades, California
Current Conditions -  °F | °C
As of 8:51 PM on Friday 28 Nov 2014 (Local Time) from KSMO Reporting Station
Clear Clear  
Wind Chill: 60°   Ceiling: Unl
Heat Index: 60°   Visibility: 10mi
Dew Point: 44°   Wind: 3mph
Humidity: 55%   Direction: 350°N
Pressure: 29.9"   Gusts: NA
Location:  34.05°N, 118.53°W
Report Text: KSMO 290451Z AUTO 35003KT 10SM CLR 16/07 A2990 RMK AO2 SLP124 T01560067
Loading
Personal Weather Stations






























Interactive Weather Map New forecast layout! Learn more

10-Day Weather Forecast

Advertisements
Track Severe Weather on mobile